createdAt,value
2023-01-25T00:00:03.905Z,0
2023-01-25T00:01:03.365Z,0
2023-01-25T00:02:03.623Z,0
2023-01-25T00:03:03.783Z,0
2023-01-25T00:04:03.584Z,0
2023-01-25T00:05:03.546Z,0
2023-01-25T00:06:03.604Z,0
2023-01-25T00:07:03.736Z,0
2023-01-25T00:08:03.457Z,0
2023-01-25T00:09:03.175Z,0
2023-01-25T00:10:09.996Z,0
2023-01-25T00:11:05.260Z,0
2023-01-25T00:12:03.168Z,0
2023-01-25T00:13:03.643Z,0
2023-01-25T00:14:03.633Z,0
2023-01-25T00:15:03.310Z,0
2023-01-25T00:16:03.390Z,0
2023-01-25T00:17:02.879Z,0
2023-01-25T00:18:03.549Z,0
2023-01-25T00:19:03.554Z,0
2023-01-25T00:20:03.491Z,0
2023-01-25T00:21:03.212Z,0
2023-01-25T00:22:03.505Z,0
2023-01-25T00:23:03.182Z,0
2023-01-25T00:24:03.381Z,0
2023-01-25T00:25:03.371Z,0
2023-01-25T00:26:04.605Z,0
2023-01-25T00:27:03.337Z,0
2023-01-25T00:28:03.472Z,0
2023-01-25T00:29:03.066Z,0
2023-01-25T00:30:03.281Z,0
2023-01-25T00:31:03.287Z,0
2023-01-25T00:32:04.078Z,0
2023-01-25T00:33:03.237Z,0
2023-01-25T00:34:03.307Z,0
2023-01-25T00:35:02.939Z,0
2023-01-25T00:36:02.662Z,0
2023-01-25T00:37:03.276Z,0
2023-01-25T00:38:03.007Z,0
2023-01-25T00:39:02.591Z,0
2023-01-25T00:40:03.124Z,0
2023-01-25T00:41:02.581Z,0
2023-01-25T00:42:02.835Z,0
2023-01-25T00:43:02.816Z,0
2023-01-25T00:44:03.207Z,0
2023-01-25T00:45:02.757Z,0
2023-01-25T00:46:02.833Z,0
2023-01-25T00:47:02.680Z,0
2023-01-25T00:48:02.923Z,0
2023-01-25T00:49:02.887Z,0
2023-01-25T00:50:02.652Z,0
2023-01-25T00:51:02.851Z,0
2023-01-25T00:52:02.611Z,0
2023-01-25T00:53:02.846Z,0
2023-01-25T00:54:02.897Z,0
2023-01-25T00:55:02.519Z,0
2023-01-25T00:56:02.493Z,0
2023-01-25T00:57:02.464Z,0
2023-01-25T00:58:02.202Z,0
2023-01-25T00:59:02.441Z,0
2023-01-25T01:00:02.167Z,0
2023-01-25T01:01:02.856Z,0
2023-01-25T01:02:02.695Z,0
2023-01-25T01:03:02.415Z,0
2023-01-25T01:04:03.934Z,0
2023-01-25T01:05:03.023Z,0
2023-01-25T01:06:02.561Z,0
2023-01-25T01:07:02.313Z,0
2023-01-25T01:08:02.536Z,0
2023-01-25T01:09:02.511Z,0
2023-01-25T01:10:02.610Z,0
2023-01-25T01:11:02.528Z,0
2023-01-25T01:12:02.159Z,0
2023-01-25T01:13:02.167Z,0
2023-01-25T01:14:02.421Z,0
2023-01-25T01:15:02.444Z,0
2023-01-25T01:16:01.815Z,0
2023-01-25T01:17:05.140Z,0
2023-01-25T01:18:02.049Z,0
2023-01-25T01:19:02.036Z,0
2023-01-25T01:20:02.153Z,0
2023-01-25T01:21:01.988Z,0
2023-01-25T01:22:01.994Z,0
2023-01-25T01:23:01.970Z,0
2023-01-25T01:24:02.769Z,0
2023-01-25T01:25:02.176Z,0
2023-01-25T01:26:02.179Z,0
2023-01-25T01:27:01.840Z,0
2023-01-25T01:28:02.082Z,0
2023-01-25T01:29:01.816Z,0
2023-01-25T01:30:01.798Z,0
2023-01-25T01:31:02.021Z,0
2023-01-25T01:32:02.430Z,0
2023-01-25T01:33:02.239Z,0
2023-01-25T01:34:33.535Z,0
2023-01-25T01:35:01.980Z,0
2023-01-25T01:36:01.432Z,0
2023-01-25T01:37:01.412Z,0
2023-01-25T01:38:01.954Z,0
2023-01-25T01:39:01.878Z,0
2023-01-25T01:40:01.670Z,0
2023-01-25T01:41:01.620Z,0
2023-01-25T01:42:01.922Z,0
2023-01-25T01:43:01.802Z,0
2023-01-25T01:44:01.801Z,0
2023-01-25T01:45:01.503Z,0
2023-01-25T01:46:01.736Z,0
2023-01-25T01:47:01.745Z,0
2023-01-25T01:48:01.435Z,0
2023-01-25T01:49:01.661Z,0
2023-01-25T01:50:01.852Z,0
2023-01-25T01:51:01.103Z,0
2023-01-25T01:52:01.336Z,0
2023-01-25T01:53:01.122Z,0
2023-01-25T01:54:01.633Z,0
2023-01-25T01:55:01.201Z,0
2023-01-25T01:56:01.280Z,0
2023-01-25T01:57:01.519Z,0
2023-01-25T01:58:01.556Z,0
2023-01-25T01:59:01.196Z,0
2023-01-25T02:00:01.503Z,0
2023-01-25T02:01:01.600Z,0
2023-01-25T02:02:00.877Z,0
2023-01-25T02:03:01.719Z,0
2023-01-25T02:04:01.112Z,0
2023-01-25T02:05:01.067Z,0
2023-01-25T02:06:01.301Z,0
2023-01-25T02:07:01.287Z,0
2023-01-25T02:08:01.179Z,0
2023-01-25T02:09:01.463Z,0
2023-01-25T02:10:00.987Z,0
2023-01-25T02:11:00.975Z,0
2023-01-25T02:12:01.356Z,0
2023-01-25T02:13:01.188Z,0
2023-01-25T02:14:01.190Z,0
2023-01-25T02:15:01.136Z,0
2023-01-25T02:16:01.139Z,0
2023-01-25T02:17:00.852Z,0
2023-01-25T02:18:01.060Z,0
2023-01-25T02:19:01.041Z,0
2023-01-25T02:20:01.013Z,0
2023-01-25T02:21:02.665Z,0
2023-01-25T02:22:00.782Z,0
2023-01-25T02:23:00.950Z,0
2023-01-25T02:24:00.811Z,0
2023-01-25T02:25:01.032Z,0
2023-01-25T02:26:00.930Z,0
2023-01-25T02:27:00.875Z,0
2023-01-25T02:28:00.633Z,0
2023-01-25T02:29:00.822Z,0
2023-01-25T02:30:00.917Z,0
2023-01-25T02:31:00.782Z,0
2023-01-25T02:32:01.093Z,0
2023-01-25T02:33:00.743Z,0
2023-01-25T02:34:00.807Z,0
2023-01-25T02:35:00.729Z,0
2023-01-25T02:36:00.429Z,0
2023-01-25T02:37:00.676Z,0
2023-01-25T02:38:00.141Z,0
2023-01-25T02:39:00.667Z,0
2023-01-25T02:40:00.374Z,0
2023-01-25T02:41:00.641Z,0
2023-01-25T02:42:00.579Z,0
2023-01-25T02:43:00.294Z,0
2023-01-25T02:44:00.288Z,0
2023-01-25T02:45:00.260Z,0
2023-01-25T02:46:00.738Z,0
2023-01-25T02:47:00.491Z,0
2023-01-25T02:48:00.464Z,0
2023-01-25T02:49:00.442Z,0
2023-01-25T02:50:00.156Z,0
2023-01-25T02:51:00.375Z,0
2023-01-25T02:52:00.172Z,0
2023-01-25T02:53:00.326Z,0
2023-01-25T02:54:00.113Z,0
2023-01-25T02:55:00.039Z,0
2023-01-25T02:55:59.766Z,0
2023-01-25T02:57:00.369Z,0
2023-01-25T02:57:59.778Z,0
2023-01-25T02:58:59.964Z,0
2023-01-25T02:59:59.975Z,0
2023-01-25T03:01:00.088Z,0
2023-01-25T03:02:00.518Z,0
2023-01-25T03:03:00.694Z,0
2023-01-25T03:04:00.128Z,0
2023-01-25T03:04:59.825Z,0
2023-01-25T03:05:59.874Z,0
2023-01-25T03:07:00.081Z,0
2023-01-25T03:07:59.776Z,0
2023-01-25T03:09:00.003Z,0
2023-01-25T03:09:59.746Z,0
2023-01-25T03:10:59.708Z,0
2023-01-25T03:11:59.431Z,0
2023-01-25T03:12:59.929Z,0
2023-01-25T03:13:59.685Z,0
2023-01-25T03:14:59.636Z,0
2023-01-25T03:15:59.924Z,0
2023-01-25T03:16:59.328Z,0
2023-01-25T03:17:59.855Z,0
2023-01-25T03:18:59.533Z,0
2023-01-25T03:19:59.794Z,0
2023-01-25T03:20:58.968Z,0
2023-01-25T03:21:59.476Z,0
2023-01-25T03:22:59.457Z,0
2023-01-25T03:23:59.963Z,0
2023-01-25T03:24:59.710Z,0
2023-01-25T03:25:59.398Z,0
2023-01-25T03:26:59.810Z,0
2023-01-25T03:27:59.668Z,0
2023-01-25T03:28:59.603Z,0
2023-01-25T03:29:59.322Z,0
2023-01-25T03:30:59.734Z,0
2023-01-25T03:31:59.997Z,0
2023-01-25T03:32:59.247Z,0
2023-01-25T03:50:00.346Z,0
2023-01-25T03:50:59.666Z,0
2023-01-25T03:51:59.660Z,0
2023-01-25T03:52:59.910Z,0
2023-01-25T03:54:00.210Z,0
2023-01-25T03:55:00.122Z,0
2023-01-25T03:56:00.107Z,0
2023-01-25T03:56:59.821Z,0
2023-01-25T03:57:59.513Z,0
2023-01-25T03:58:59.492Z,0
2023-01-25T04:00:00.129Z,0
2023-01-25T04:00:59.499Z,0
2023-01-25T04:02:00.254Z,0
2023-01-25T04:02:59.677Z,0
2023-01-25T04:03:59.386Z,0
2023-01-25T04:04:59.656Z,0
2023-01-25T04:05:59.995Z,0
2023-01-25T04:06:59.574Z,0
2023-01-25T04:07:59.571Z,0
2023-01-25T04:08:59.576Z,0
2023-01-25T04:09:59.558Z,0
2023-01-25T04:10:59.502Z,0
2023-01-25T04:11:59.774Z,0
2023-01-25T04:12:59.447Z,0
2023-01-25T04:13:59.445Z,0
2023-01-25T04:14:59.403Z,0
2023-01-25T04:15:59.448Z,0
2023-01-25T04:16:59.588Z,0
2023-01-25T04:17:59.345Z,0
2023-01-25T04:18:59.346Z,0
2023-01-25T04:19:59.342Z,0
2023-01-25T04:20:59.673Z,0
2023-01-25T04:21:59.609Z,0
2023-01-25T04:22:59.521Z,0
2023-01-25T04:23:59.636Z,0
2023-01-25T04:24:59.462Z,0
2023-01-25T04:25:59.187Z,0
2023-01-25T04:26:58.911Z,0
2023-01-25T04:27:59.402Z,0
2023-01-25T04:28:59.616Z,0
2023-01-25T04:29:58.848Z,0
2023-01-25T04:30:59.085Z,0
2023-01-25T04:31:59.909Z,0
2023-01-25T04:32:59.065Z,0
2023-01-25T04:33:59.265Z,0
2023-01-25T04:34:59.006Z,0
2023-01-25T04:35:59.254Z,0
2023-01-25T04:36:59.204Z,0
2023-01-25T04:37:59.269Z,0
2023-01-25T04:38:59.120Z,0
2023-01-25T04:39:59.205Z,0
2023-01-25T04:40:58.645Z,0
2023-01-25T04:41:59.083Z,0
2023-01-25T04:42:58.817Z,0
2023-01-25T04:43:58.802Z,0
2023-01-25T04:44:58.275Z,0
2023-01-25T04:45:58.745Z,0
2023-01-25T04:46:58.740Z,0
2023-01-25T04:47:58.466Z,0
2023-01-25T04:48:58.445Z,0
2023-01-25T04:49:58.934Z,0
2023-01-25T04:50:58.907Z,0
2023-01-25T04:51:58.641Z,0
2023-01-25T04:52:58.621Z,0
2023-01-25T04:53:58.967Z,0
2023-01-25T04:54:58.570Z,0
2023-01-25T04:55:58.600Z,0
2023-01-25T04:56:58.790Z,0
2023-01-25T04:57:58.808Z,0
2023-01-25T04:58:58.780Z,0
2023-01-25T04:59:58.231Z,0
2023-01-25T05:00:58.552Z,0
2023-01-25T05:01:58.462Z,0
2023-01-25T05:02:58.657Z,0
2023-01-25T05:03:58.633Z,0
2023-01-25T05:04:58.928Z,0
2023-01-25T05:05:58.596Z,0
2023-01-25T05:06:58.834Z,0
2023-01-25T05:07:58.812Z,0
2023-01-25T05:08:58.520Z,0
2023-01-25T05:09:58.872Z,0
2023-01-25T05:10:58.735Z,0
2023-01-25T05:11:58.472Z,0
2023-01-25T05:12:58.205Z,0
2023-01-25T05:13:58.168Z,0
2023-01-25T05:14:58.405Z,0
2023-01-25T05:15:58.644Z,0
2023-01-25T05:16:58.948Z,0
2023-01-25T05:17:58.676Z,0
2023-01-25T05:18:58.317Z,0
2023-01-25T05:19:58.298Z,0
2023-01-25T05:20:58.001Z,0
2023-01-25T05:21:58.268Z,0
2023-01-25T05:22:58.558Z,0
2023-01-25T05:23:58.482Z,0
2023-01-25T05:24:58.244Z,0
2023-01-25T05:25:58.527Z,0
2023-01-25T05:26:57.639Z,0
2023-01-25T05:27:58.157Z,0
2023-01-25T05:28:58.106Z,0
2023-01-25T05:29:58.430Z,0
2023-01-25T05:30:58.596Z,0
2023-01-25T05:31:58.333Z,0
2023-01-25T05:32:57.758Z,0
2023-01-25T05:33:58.023Z,0
2023-01-25T05:34:59.934Z,0
2023-01-25T05:35:57.459Z,0
2023-01-25T05:36:57.681Z,0
2023-01-25T05:37:57.928Z,0
2023-01-25T05:38:58.162Z,0
2023-01-25T05:39:58.128Z,0
2023-01-25T05:40:57.594Z,0
2023-01-25T05:41:58.197Z,0
2023-01-25T05:42:57.816Z,0
2023-01-25T05:43:57.784Z,0
2023-01-25T05:44:57.793Z,0
2023-01-25T05:45:58.017Z,0
2023-01-25T05:46:57.481Z,0
2023-01-25T05:47:58.218Z,0
2023-01-25T05:48:58.520Z,0
2023-01-25T05:49:57.919Z,0
2023-01-25T05:50:58.180Z,0
2023-01-25T05:51:58.130Z,0
2023-01-25T05:52:57.895Z,0
2023-01-25T05:53:58.080Z,0
2023-01-25T05:54:57.813Z,0
2023-01-25T05:55:58.072Z,0
2023-01-25T05:56:57.817Z,0
2023-01-25T05:57:58.502Z,0
2023-01-25T05:58:57.476Z,0
2023-01-25T05:59:57.960Z,0
2023-01-25T06:00:58.209Z,0
2023-01-25T06:01:57.684Z,0
2023-01-25T06:02:59.102Z,0
2023-01-25T06:03:58.163Z,0
2023-01-25T06:04:58.143Z,0
2023-01-25T06:05:57.675Z,0
2023-01-25T06:06:57.820Z,0
2023-01-25T06:07:57.794Z,0
2023-01-25T06:08:57.800Z,0
2023-01-25T06:09:57.816Z,0
2023-01-25T06:10:58.012Z,0
2023-01-25T06:11:57.750Z,0
2023-01-25T06:12:58.506Z,0
2023-01-25T06:13:58.633Z,0
2023-01-25T06:14:58.514Z,0
2023-01-25T06:15:58.451Z,0
2023-01-25T06:16:58.171Z,0
2023-01-25T06:17:58.434Z,0
2023-01-25T06:18:58.358Z,0
2023-01-25T06:19:58.335Z,0
2023-01-25T06:20:58.046Z,0
2023-01-25T06:21:58.305Z,4
2023-01-25T06:22:58.282Z,0
2023-01-25T06:23:58.892Z,0
2023-01-25T06:24:58.471Z,4
2023-01-25T06:25:58.451Z,0
2023-01-25T06:26:58.436Z,4
2023-01-25T06:27:58.040Z,4
2023-01-25T06:28:59.729Z,4
2023-01-25T06:29:58.486Z,4
2023-01-25T06:30:58.123Z,4
2023-01-25T06:31:58.392Z,8
2023-01-25T06:32:58.067Z,8
2023-01-25T06:33:59.218Z,8
2023-01-25T06:34:57.946Z,12
2023-01-25T06:35:58.047Z,12
2023-01-25T06:36:58.258Z,12
2023-01-25T06:37:57.960Z,16
2023-01-25T06:38:58.281Z,20
2023-01-25T06:39:57.919Z,20
2023-01-25T06:40:58.133Z,24
2023-01-25T06:41:57.614Z,32
2023-01-25T06:42:58.114Z,32
2023-01-25T06:43:58.105Z,40
2023-01-25T06:44:58.127Z,44
2023-01-25T06:45:58.051Z,48
2023-01-25T06:46:58.379Z,56
2023-01-25T06:47:57.756Z,64
2023-01-25T06:48:58.033Z,68
2023-01-25T06:49:57.957Z,76
2023-01-25T06:50:57.698Z,84
2023-01-25T06:51:57.677Z,96
2023-01-25T06:52:57.635Z,104
2023-01-25T06:53:57.138Z,116
2023-01-25T06:54:57.352Z,128
2023-01-25T06:55:57.840Z,136
2023-01-25T06:56:57.818Z,152
2023-01-25T06:57:57.562Z,164
2023-01-25T06:58:57.318Z,172
2023-01-25T06:59:57.518Z,184
2023-01-25T07:00:57.748Z,200
2023-01-25T07:01:58.196Z,216
2023-01-25T07:02:57.770Z,232
2023-01-25T07:03:57.426Z,248
2023-01-25T07:04:57.646Z,268
2023-01-25T07:05:57.662Z,288
2023-01-25T07:06:57.370Z,304
2023-01-25T07:07:57.734Z,324
2023-01-25T07:08:57.303Z,336
2023-01-25T07:09:57.283Z,348
2023-01-25T07:10:57.273Z,364
2023-01-25T07:11:57.513Z,388
2023-01-25T07:12:56.994Z,400
2023-01-25T07:13:57.204Z,416
2023-01-25T07:14:57.451Z,432
2023-01-25T07:15:57.422Z,444
2023-01-25T07:16:57.198Z,460
2023-01-25T07:18:05.581Z,484
2023-01-25T07:18:57.184Z,508
2023-01-25T07:19:57.341Z,536
2023-01-25T07:20:57.093Z,564
2023-01-25T07:21:57.286Z,580
2023-01-25T07:22:57.033Z,608
2023-01-25T07:23:57.498Z,632
2023-01-25T07:24:57.257Z,648
2023-01-25T07:25:57.220Z,672
2023-01-25T07:26:56.686Z,696
2023-01-25T07:27:57.180Z,724
2023-01-25T07:28:57.171Z,752
2023-01-25T07:29:57.130Z,784
2023-01-25T07:30:57.137Z,808
2023-01-25T07:31:56.976Z,828
2023-01-25T07:32:57.102Z,856
2023-01-25T07:33:57.155Z,892
2023-01-25T07:34:57.240Z,932
2023-01-25T07:35:57.018Z,964
2023-01-25T07:36:56.829Z,1004
2023-01-25T07:37:56.712Z,1048
2023-01-25T07:38:56.963Z,1068
2023-01-25T07:39:56.673Z,1080
2023-01-25T07:40:56.417Z,1096
2023-01-25T07:41:56.688Z,1120
2023-01-25T07:42:56.643Z,1164
2023-01-25T07:43:56.360Z,1204
2023-01-25T07:44:56.073Z,1236
2023-01-25T07:45:56.812Z,1256
2023-01-25T07:46:56.802Z,1284
2023-01-25T07:47:56.764Z,1316
2023-01-25T07:48:56.773Z,1356
2023-01-25T07:49:56.832Z,1412
2023-01-25T07:50:56.882Z,1452
2023-01-25T07:51:56.435Z,1484
2023-01-25T07:52:56.663Z,1524
2023-01-25T07:53:56.397Z,1552
2023-01-25T07:54:56.372Z,1588
2023-01-25T07:55:56.610Z,1624
2023-01-25T07:56:55.831Z,1648
2023-01-25T07:57:56.055Z,1676
2023-01-25T07:58:56.094Z,1724
2023-01-25T07:59:56.656Z,1760
2023-01-25T08:00:56.501Z,1808
2023-01-25T08:01:56.301Z,1852
2023-01-25T08:02:56.221Z,1888
2023-01-25T08:03:55.931Z,1928
2023-01-25T08:04:56.189Z,1976
2023-01-25T08:05:56.268Z,2008
2023-01-25T08:06:55.868Z,2056
2023-01-25T08:07:56.138Z,2092
2023-01-25T08:08:56.144Z,2176
2023-01-25T08:09:55.931Z,2248
2023-01-25T08:10:56.306Z,2324
2023-01-25T08:11:56.330Z,2388
2023-01-25T08:12:56.005Z,2408
2023-01-25T08:13:56.185Z,2400
2023-01-25T08:14:56.288Z,2392
2023-01-25T08:15:55.717Z,2404
2023-01-25T08:16:55.664Z,2492
2023-01-25T08:17:55.933Z,2612
2023-01-25T08:18:55.374Z,2664
2023-01-25T08:19:55.898Z,2696
2023-01-25T08:20:55.865Z,2728
2023-01-25T08:21:56.184Z,2752
2023-01-25T08:22:55.859Z,2760
2023-01-25T08:23:56.292Z,2784
2023-01-25T08:24:56.027Z,2828
2023-01-25T08:25:55.763Z,2864
2023-01-25T08:26:55.871Z,2900
2023-01-25T08:27:55.737Z,2928
2023-01-25T08:28:55.431Z,2952
2023-01-25T08:29:56.135Z,2988
2023-01-25T08:31:04.823Z,3004
2023-01-25T08:31:56.002Z,3024
2023-01-25T08:32:55.865Z,3064
2023-01-25T08:33:55.768Z,3160
2023-01-25T08:34:55.579Z,3228
2023-01-25T08:35:55.813Z,3280
2023-01-25T08:36:56.614Z,3352
2023-01-25T08:37:56.129Z,3436
2023-01-25T08:38:55.496Z,3448
2023-01-25T08:39:56.057Z,3424
2023-01-25T08:40:56.021Z,3452
2023-01-25T08:41:55.694Z,3456
2023-01-25T08:42:56.141Z,3452
2023-01-25T08:43:55.699Z,3500
2023-01-25T08:44:55.671Z,3548
2023-01-25T08:45:55.627Z,3580
2023-01-25T08:46:55.961Z,3620
2023-01-25T08:47:55.611Z,3768
2023-01-25T08:48:55.351Z,3880
2023-01-25T08:49:55.553Z,3904
2023-01-25T08:50:55.283Z,3844
2023-01-25T08:51:56.500Z,3884
2023-01-25T08:52:55.509Z,3896
2023-01-25T08:53:55.793Z,3952
2023-01-25T08:54:55.716Z,3968
2023-01-25T08:55:55.716Z,4036
2023-01-25T08:56:55.436Z,4112
2023-01-25T08:57:56.595Z,4160
2023-01-25T08:58:56.221Z,4168
2023-01-25T08:59:56.258Z,4148
2023-01-25T09:00:56.240Z,4148
2023-01-25T09:01:56.185Z,4172
2023-01-25T09:02:55.922Z,4196
2023-01-25T09:03:56.621Z,4224
2023-01-25T09:04:55.925Z,4248
2023-01-25T09:05:55.866Z,4288
2023-01-25T09:06:55.620Z,4276
2023-01-25T09:07:56.086Z,4352
2023-01-25T09:08:55.855Z,4308
2023-01-25T09:09:55.919Z,4232
2023-01-25T09:10:55.612Z,4304
2023-01-25T09:11:55.730Z,4588
2023-01-25T09:12:55.926Z,4608
2023-01-25T09:13:55.740Z,4680
2023-01-25T09:14:55.634Z,4780
2023-01-25T09:15:55.666Z,4764
2023-01-25T09:16:55.653Z,4612
2023-01-25T09:17:55.884Z,4728
2023-01-25T09:18:57.516Z,4812
2023-01-25T09:19:55.611Z,4752
2023-01-25T09:20:55.829Z,4692
2023-01-25T09:21:55.793Z,4900
2023-01-25T09:22:55.802Z,5028
2023-01-25T09:24:13.932Z,5092
2023-01-25T09:24:55.624Z,5056
2023-01-25T09:25:55.955Z,5092
2023-01-25T09:27:06.432Z,5092
2023-01-25T09:27:55.442Z,5156
2023-01-25T09:28:55.702Z,5036
2023-01-25T09:30:18.642Z,5132
2023-01-25T09:31:27.356Z,5372
2023-01-25T09:31:55.887Z,5492
2023-01-25T09:32:56.403Z,5460
2023-01-25T09:33:55.305Z,5632
2023-01-25T09:34:55.423Z,5748
2023-01-25T09:35:55.263Z,5748
2023-01-25T09:36:55.569Z,5572
2023-01-25T09:37:55.481Z,5604
2023-01-25T09:38:55.492Z,5624
2023-01-25T09:39:55.598Z,5612
2023-01-25T09:40:54.937Z,5580
2023-01-25T09:41:56.335Z,5656
2023-01-25T09:42:54.936Z,5780
2023-01-25T09:43:56.771Z,5952
2023-01-25T09:44:54.882Z,6352
2023-01-25T09:45:55.086Z,6196
2023-01-25T09:46:55.338Z,6260
2023-01-25T09:47:55.068Z,6224
2023-01-25T09:49:13.914Z,6212
2023-01-25T09:49:55.363Z,6204
2023-01-25T09:50:54.989Z,5884
2023-01-25T09:51:55.236Z,5812
2023-01-25T09:52:55.209Z,6184
2023-01-25T09:53:54.709Z,6288
2023-01-25T09:54:55.424Z,6284
2023-01-25T09:55:55.183Z,6480
2023-01-25T09:56:54.560Z,6496
2023-01-25T09:57:54.961Z,6560
2023-01-25T09:58:55.126Z,6556
2023-01-25T09:59:55.061Z,6604
2023-01-25T10:00:55.074Z,6568
2023-01-25T10:01:54.984Z,6328
2023-01-25T10:02:55.023Z,6436
2023-01-25T10:03:55.013Z,6540
2023-01-25T10:04:54.937Z,6832
2023-01-25T10:05:54.788Z,6720
2023-01-25T10:07:07.081Z,6496
2023-01-25T10:07:54.459Z,6656
2023-01-25T10:08:54.919Z,6856
2023-01-25T10:09:54.950Z,7072
2023-01-25T10:10:54.619Z,6852
2023-01-25T10:11:54.885Z,6824
2023-01-25T10:12:54.849Z,6956
2023-01-25T10:13:54.911Z,6656
2023-01-25T10:14:54.654Z,6656
2023-01-25T10:15:54.847Z,6780
2023-01-25T10:16:54.814Z,6792
2023-01-25T10:17:54.773Z,6996
2023-01-25T10:18:54.466Z,7216
2023-01-25T10:19:54.721Z,7016
2023-01-25T10:20:53.918Z,6788
2023-01-25T10:21:54.472Z,6856
2023-01-25T10:22:54.683Z,6844
2023-01-25T10:23:54.622Z,6608
2023-01-25T10:24:54.376Z,6352
2023-01-25T10:25:54.719Z,6136
2023-01-25T10:26:54.611Z,5776
2023-01-25T10:27:54.601Z,5600
2023-01-25T10:28:54.542Z,6272
2023-01-25T10:29:54.601Z,6820
2023-01-25T10:30:54.608Z,6940
2023-01-25T10:31:54.769Z,6548
2023-01-25T10:33:02.382Z,5952
2023-01-25T10:33:54.467Z,6180
2023-01-25T10:35:03.618Z,6260
2023-01-25T10:35:54.697Z,6084
2023-01-25T10:36:55.637Z,6076
2023-01-25T10:37:54.228Z,6344
2023-01-25T10:38:54.153Z,6848
2023-01-25T10:39:54.376Z,7416
2023-01-25T10:40:54.369Z,7816
2023-01-25T10:41:55.105Z,7596
2023-01-25T10:42:54.299Z,7136
2023-01-25T10:43:54.315Z,6892
2023-01-25T10:44:54.450Z,7084
2023-01-25T10:45:54.365Z,7300
2023-01-25T10:46:54.284Z,7208
2023-01-25T10:47:54.235Z,7112
2023-01-25T10:48:54.005Z,7068
2023-01-25T10:49:54.085Z,6960
2023-01-25T10:50:54.157Z,6796
2023-01-25T10:51:54.161Z,6660
2023-01-25T10:52:53.857Z,6656
2023-01-25T10:53:53.844Z,6860
2023-01-25T10:54:53.609Z,7088
2023-01-25T10:55:54.048Z,7152
2023-01-25T10:56:54.135Z,7248
2023-01-25T10:57:53.851Z,7444
2023-01-25T10:58:54.045Z,7164
2023-01-25T10:59:53.942Z,6984
2023-01-25T11:00:53.789Z,7224
2023-01-25T11:01:54.386Z,7292
2023-01-25T11:02:53.943Z,7172
2023-01-25T11:03:53.698Z,7116
2023-01-25T11:04:53.683Z,7096
2023-01-25T11:05:53.899Z,7040
2023-01-25T11:06:53.685Z,7096
2023-01-25T11:07:53.621Z,7068
2023-01-25T11:08:53.834Z,7108
2023-01-25T11:09:53.601Z,7304
2023-01-25T11:10:53.794Z,7428
2023-01-25T11:11:53.791Z,7500
2023-01-25T11:12:53.514Z,7620
2023-01-25T11:13:53.762Z,7512
2023-01-25T11:14:53.311Z,7396
2023-01-25T11:15:53.988Z,7312
2023-01-25T11:16:53.745Z,7192
2023-01-25T11:17:55.844Z,7248
2023-01-25T11:18:53.394Z,7384
2023-01-25T11:19:53.698Z,7744
2023-01-25T11:20:53.845Z,7928
2023-01-25T11:21:53.372Z,7976
2023-01-25T11:22:53.435Z,7984
2023-01-25T11:23:56.251Z,7996
2023-01-25T11:24:53.312Z,7868
2023-01-25T11:25:53.018Z,7848
2023-01-25T11:26:53.285Z,7800
2023-01-25T11:27:53.229Z,7844
2023-01-25T11:28:53.515Z,7880
2023-01-25T11:29:53.516Z,7848
2023-01-25T11:30:53.437Z,7844
2023-01-25T11:31:53.908Z,7840
2023-01-25T11:32:52.906Z,7804
2023-01-25T11:33:53.246Z,7924
2023-01-25T11:34:53.391Z,8064
2023-01-25T11:35:53.103Z,8276
2023-01-25T11:36:53.359Z,8368
2023-01-25T11:37:52.826Z,8220
2023-01-25T11:38:53.316Z,8112
2023-01-25T11:39:53.386Z,7944
2023-01-25T11:40:53.045Z,8008
2023-01-25T11:41:52.799Z,8188
2023-01-25T11:42:53.258Z,8276
2023-01-25T11:43:52.989Z,8148
2023-01-25T11:44:52.961Z,8116
2023-01-25T11:45:53.185Z,8124
2023-01-25T11:46:52.639Z,8084
2023-01-25T11:47:53.218Z,7828
2023-01-25T11:48:53.140Z,7884
2023-01-25T11:49:53.207Z,7856
2023-01-25T11:50:53.206Z,7992
2023-01-25T11:51:57.284Z,7832
2023-01-25T11:52:52.843Z,7536
2023-01-25T11:53:53.150Z,6940
2023-01-25T11:54:53.059Z,6856
2023-01-25T11:55:53.300Z,6544
2023-01-25T11:56:53.267Z,6264
2023-01-25T11:57:53.094Z,6868
2023-01-25T11:58:52.714Z,7368
2023-01-25T11:59:52.951Z,7036
2023-01-25T12:00:52.948Z,6960
2023-01-25T12:01:53.184Z,7568
2023-01-25T12:02:53.176Z,7700
2023-01-25T12:03:53.180Z,7764
2023-01-25T12:04:52.927Z,7848
2023-01-25T12:05:52.931Z,7780
2023-01-25T12:06:53.107Z,7676
2023-01-25T12:07:53.111Z,7612
2023-01-25T12:08:52.794Z,7524
2023-01-25T12:09:52.523Z,7408
2023-01-25T12:10:52.806Z,7324
2023-01-25T12:11:53.023Z,7256
2023-01-25T12:12:53.115Z,7412
2023-01-25T12:13:52.732Z,7492
2023-01-25T12:14:52.722Z,7688
2023-01-25T12:15:53.006Z,7492
2023-01-25T12:16:52.395Z,6644
2023-01-25T12:17:52.659Z,6228
2023-01-25T12:18:52.714Z,6508
2023-01-25T12:19:52.639Z,6676
2023-01-25T12:20:52.788Z,6852
2023-01-25T12:21:52.931Z,7296
2023-01-25T12:22:52.765Z,7524
2023-01-25T12:23:52.947Z,7692
2023-01-25T12:24:52.801Z,7752
2023-01-25T12:25:52.511Z,7776
2023-01-25T12:26:52.983Z,7692
2023-01-25T12:27:52.224Z,7520
2023-01-25T12:28:52.538Z,7496
2023-01-25T12:29:52.753Z,7524
2023-01-25T12:30:52.588Z,7580
2023-01-25T12:31:52.454Z,7544
2023-01-25T12:32:52.748Z,7440
2023-01-25T12:33:52.617Z,7296
2023-01-25T12:34:52.541Z,7168
2023-01-25T12:35:52.720Z,7036
2023-01-25T12:36:52.716Z,7084
2023-01-25T12:37:52.741Z,7260
2023-01-25T12:38:52.657Z,7228
2023-01-25T12:39:52.370Z,7332
2023-01-25T12:40:52.150Z,7368
2023-01-25T12:41:52.348Z,7212
2023-01-25T12:42:52.350Z,7304
2023-01-25T12:43:52.566Z,7264
2023-01-25T12:44:52.273Z,6912
2023-01-25T12:45:52.246Z,6908
2023-01-25T12:46:52.744Z,6684
2023-01-25T12:47:52.251Z,6364
2023-01-25T12:48:52.490Z,6348
2023-01-25T12:49:51.964Z,6304
2023-01-25T12:50:52.267Z,6412
2023-01-25T12:51:52.468Z,6412
2023-01-25T12:52:52.135Z,6112
2023-01-25T12:53:52.478Z,6248
2023-01-25T12:54:52.365Z,6416
2023-01-25T12:55:52.343Z,6380
2023-01-25T12:56:52.074Z,6384
2023-01-25T12:57:52.062Z,6376
2023-01-25T12:58:51.789Z,6332
2023-01-25T12:59:52.271Z,6252
2023-01-25T13:00:52.492Z,6128
2023-01-25T13:01:52.203Z,5816
2023-01-25T13:02:51.951Z,4976
2023-01-25T13:03:51.955Z,4456
2023-01-25T13:04:51.932Z,4136
2023-01-25T13:05:52.174Z,4164
2023-01-25T13:06:51.634Z,4076
2023-01-25T13:07:52.170Z,4296
2023-01-25T13:08:53.968Z,3528
2023-01-25T13:09:51.889Z,3404
2023-01-25T13:10:51.807Z,3500
2023-01-25T13:11:51.562Z,3312
2023-01-25T13:12:51.516Z,3312
2023-01-25T13:13:51.527Z,3636
2023-01-25T13:14:52.036Z,3924
2023-01-25T13:15:52.142Z,4384
2023-01-25T13:17:10.215Z,4112
2023-01-25T13:17:51.427Z,3756
2023-01-25T13:18:51.729Z,4176
2023-01-25T13:19:51.424Z,4124
2023-01-25T13:20:51.685Z,3872
2023-01-25T13:21:51.373Z,4036
2023-01-25T13:22:51.611Z,4424
2023-01-25T13:23:52.202Z,4772
2023-01-25T13:24:51.855Z,4760
2023-01-25T13:25:51.860Z,4472
2023-01-25T13:26:51.807Z,4464
2023-01-25T13:27:51.512Z,4640
2023-01-25T13:28:51.597Z,4624
2023-01-25T13:29:51.763Z,4848
2023-01-25T13:30:51.843Z,4908
2023-01-25T13:32:03.799Z,4792
2023-01-25T13:32:51.680Z,4844
2023-01-25T13:33:50.911Z,4920
2023-01-25T13:34:51.663Z,5004
2023-01-25T13:35:51.453Z,5008
2023-01-25T13:36:51.335Z,5080
2023-01-25T13:37:51.341Z,5068
2023-01-25T13:38:51.571Z,4896
2023-01-25T13:39:51.949Z,4708
2023-01-25T13:40:51.880Z,4696
2023-01-25T13:41:51.381Z,4648
2023-01-25T13:42:51.550Z,4640
2023-01-25T13:43:51.547Z,4632
2023-01-25T13:44:53.998Z,4540
2023-01-25T13:45:52.046Z,4464
2023-01-25T13:46:51.481Z,4424
2023-01-25T13:47:51.748Z,4344
2023-01-25T13:48:51.462Z,4280
2023-01-25T13:49:51.768Z,4208
2023-01-25T13:50:51.673Z,4184
2023-01-25T13:51:51.135Z,4132
2023-01-25T13:52:51.637Z,4080
2023-01-25T13:53:51.486Z,4036
2023-01-25T13:54:51.475Z,4008
2023-01-25T13:55:51.448Z,3928
2023-01-25T13:56:51.384Z,3896
2023-01-25T13:57:51.727Z,3856
2023-01-25T13:58:51.570Z,3884
2023-01-25T13:59:59.116Z,3896
2023-01-25T14:00:51.762Z,3972
2023-01-25T14:01:51.480Z,3872
2023-01-25T14:02:54.121Z,3776
2023-01-25T14:03:50.948Z,3688
2023-01-25T14:04:50.914Z,3644
2023-01-25T14:05:51.163Z,3596
2023-01-25T14:06:51.386Z,3520
2023-01-25T14:07:50.859Z,3456
2023-01-25T14:08:50.859Z,3416
2023-01-25T14:09:51.325Z,3392
2023-01-25T14:10:50.836Z,3344
2023-01-25T14:11:51.088Z,3320
2023-01-25T14:12:51.366Z,3272
2023-01-25T14:13:51.304Z,3232
2023-01-25T14:14:50.969Z,3236